createdAt,value
2018-06-20T00:00:34.333Z,69.25
2018-06-20T00:01:34.493Z,68.87
2018-06-20T00:02:34.351Z,68.94
2018-06-20T00:03:34.310Z,69.07
2018-06-20T00:04:34.320Z,68.97
2018-06-20T00:05:34.312Z,69.2
2018-06-20T00:06:34.328Z,68.79
2018-06-20T00:07:34.308Z,68.68
2018-06-20T00:08:34.313Z,68.57
2018-06-20T00:09:34.327Z,68.71
2018-06-20T00:10:34.346Z,68.6
2018-06-20T00:11:34.304Z,69.2
2018-06-20T00:12:34.306Z,69.17
2018-06-20T00:13:34.302Z,69.2
2018-06-20T00:14:34.302Z,69.43
2018-06-20T00:15:34.310Z,69.55
2018-06-20T00:16:34.308Z,69.52
2018-06-20T00:17:34.331Z,69.15
2018-06-20T00:18:34.339Z,69.41
2018-06-20T00:19:34.324Z,69.3
2018-06-20T00:20:34.325Z,70.01
2018-06-20T00:21:34.358Z,69.34
2018-06-20T00:22:34.343Z,69.98
2018-06-20T00:23:34.355Z,70.25
2018-06-20T00:24:34.311Z,71.14
2018-06-20T00:25:34.323Z,71.67
2018-06-20T00:26:34.381Z,71
2018-06-20T00:27:34.377Z,71.02
2018-06-20T00:28:34.354Z,70.47
2018-06-20T00:29:34.309Z,70.58
2018-06-20T00:30:34.331Z,71.18
2018-06-20T00:31:34.315Z,71.33
2018-06-20T00:32:34.487Z,71.03
2018-06-20T00:33:34.395Z,70.87
2018-06-20T00:34:34.457Z,70.29
2018-06-20T00:35:34.354Z,70.43
2018-06-20T00:36:34.389Z,70.77
2018-06-20T00:37:34.341Z,71.48
2018-06-20T00:38:34.364Z,71.24
2018-06-20T00:39:34.341Z,71.44
2018-06-20T00:40:34.351Z,71.28
2018-06-20T00:41:34.345Z,70.83
2018-06-20T00:42:34.382Z,70.97
2018-06-20T00:43:34.318Z,70.39
2018-06-20T00:44:34.309Z,70.83
2018-06-20T00:45:34.471Z,70.88
2018-06-20T00:46:34.323Z,71.03
2018-06-20T00:47:34.346Z,71.51
2018-06-20T00:48:34.349Z,71.17
2018-06-20T00:49:34.356Z,71.32
2018-06-20T00:50:34.497Z,71.47
2018-06-20T00:51:34.334Z,71.97
2018-06-20T00:52:34.342Z,72.01
2018-06-20T00:53:34.340Z,71.7
2018-06-20T00:54:34.326Z,71.11
2018-06-20T00:55:34.404Z,71.28
2018-06-20T00:56:34.365Z,71.8
2018-06-20T00:57:34.370Z,71.44
2018-06-20T00:58:34.331Z,71.71
2018-06-20T00:59:34.335Z,71.26
2018-06-20T01:00:34.335Z,71.58
2018-06-20T01:01:34.356Z,71.76
2018-06-20T01:02:34.342Z,71.66
2018-06-20T01:03:34.350Z,71.82
2018-06-20T01:04:34.335Z,71.86
2018-06-20T01:05:34.393Z,71.95
2018-06-20T01:06:34.348Z,71.51
2018-06-20T01:07:34.331Z,72.2
2018-06-20T01:08:34.503Z,72.14
2018-06-20T01:09:34.390Z,71.96
2018-06-20T01:10:34.340Z,71.87
2018-06-20T01:11:34.710Z,71.91
2018-06-20T01:12:34.355Z,71.4
2018-06-20T01:13:34.353Z,71.84
2018-06-20T01:14:34.374Z,71.65
2018-06-20T01:15:34.333Z,71.71
2018-06-20T01:16:34.335Z,71.56
2018-06-20T01:17:34.342Z,71.61
2018-06-20T01:18:34.366Z,71.87
2018-06-20T01:19:34.355Z,71.94
2018-06-20T01:20:34.367Z,72.19
2018-06-20T01:21:34.417Z,71.43
2018-06-20T01:22:34.375Z,72.14
2018-06-20T01:23:34.359Z,71.7
2018-06-20T01:24:34.400Z,71.88
2018-06-20T01:25:34.353Z,72.13
2018-06-20T01:26:34.368Z,72.21
2018-06-20T01:27:34.387Z,71.63
2018-06-20T01:28:34.354Z,72
2018-06-20T01:29:34.407Z,72.2
2018-06-20T01:30:34.382Z,71.29
2018-06-20T01:31:34.354Z,72.29
2018-06-20T01:32:34.365Z,72.05
2018-06-20T01:33:34.382Z,72.16
2018-06-20T01:34:34.346Z,72.29
2018-06-20T01:35:34.363Z,72.37
2018-06-20T01:36:34.472Z,71.69
2018-06-20T01:37:34.506Z,71.22
2018-06-20T01:38:34.410Z,71.45
2018-06-20T01:39:35.108Z,71.32
2018-06-20T01:40:34.359Z,71.08
2018-06-20T01:41:34.480Z,71.18
2018-06-20T01:42:34.363Z,71.48
2018-06-20T01:43:34.381Z,71.31
2018-06-20T01:44:34.463Z,71.52
2018-06-20T01:45:34.435Z,72.27
2018-06-20T01:46:34.374Z,71.72
2018-06-20T01:47:34.359Z,72.06
2018-06-20T01:48:34.378Z,72.39
2018-06-20T01:49:34.431Z,72.7
2018-06-20T01:50:34.400Z,72.4
2018-06-20T01:51:34.389Z,72.48
2018-06-20T01:52:34.368Z,72.47
2018-06-20T01:53:34.364Z,72.81
2018-06-20T01:54:34.493Z,72.68
2018-06-20T01:55:34.805Z,72.94
2018-06-20T01:56:34.439Z,72.62
2018-06-20T01:57:34.402Z,72.74
2018-06-20T01:58:34.371Z,72.5
2018-06-20T01:59:34.564Z,73.03
2018-06-20T02:00:34.393Z,72.87
2018-06-20T02:01:34.391Z,73
2018-06-20T02:02:34.382Z,72.86
2018-06-20T02:03:34.406Z,72.51
2018-06-20T02:04:34.391Z,73.09
2018-06-20T02:05:34.383Z,73.52
2018-06-20T02:06:34.480Z,73.21
2018-06-20T02:07:34.414Z,73.42
2018-06-20T02:08:34.401Z,73.08
2018-06-20T02:09:34.420Z,73.03
2018-06-20T02:10:34.398Z,73.43
2018-06-20T02:11:34.458Z,73.51
2018-06-20T02:12:34.584Z,72.97
2018-06-20T02:13:34.398Z,73.06
2018-06-20T02:14:34.489Z,73.1
2018-06-20T02:15:34.392Z,72.74
2018-06-20T02:16:34.382Z,73.01
2018-06-20T02:17:34.388Z,73.37
2018-06-20T02:18:34.421Z,73.4
2018-06-20T02:19:34.392Z,74.13
2018-06-20T02:20:34.410Z,73.62
2018-06-20T02:21:34.387Z,73.22
2018-06-20T02:22:34.584Z,74.05
2018-06-20T02:23:34.411Z,74.09
2018-06-20T02:24:34.411Z,74.55
2018-06-20T02:25:34.392Z,74.24
2018-06-20T02:26:34.405Z,74.56
2018-06-20T02:27:34.403Z,74.03
2018-06-20T02:28:34.393Z,74.72
2018-06-20T02:29:34.403Z,74.95
2018-06-20T02:30:34.433Z,75.54
2018-06-20T02:31:34.396Z,75.13
2018-06-20T02:32:34.454Z,74.39
2018-06-20T02:33:34.396Z,75.03
2018-06-20T02:34:34.410Z,75.05
2018-06-20T02:35:34.415Z,75.14
2018-06-20T02:36:34.532Z,74.92
2018-06-20T02:37:34.450Z,74.55
2018-06-20T02:38:34.431Z,74.29
2018-06-20T02:39:34.412Z,74.64
2018-06-20T02:40:34.442Z,74.72
2018-06-20T02:41:34.429Z,74.78
2018-06-20T02:42:34.423Z,74.4
2018-06-20T02:43:34.543Z,74.41
2018-06-20T02:44:34.460Z,74.11
2018-06-20T02:45:34.466Z,74.5
2018-06-20T02:46:34.435Z,74.54
2018-06-20T02:47:34.414Z,74.38
2018-06-20T02:48:34.418Z,74.6
2018-06-20T02:49:34.555Z,74.45
2018-06-20T02:50:34.436Z,74.72
2018-06-20T02:51:34.732Z,75.19
2018-06-20T02:52:34.844Z,75.12
2018-06-20T02:53:34.437Z,75.33
2018-06-20T02:54:34.433Z,75.47
2018-06-20T02:55:34.501Z,75.22
2018-06-20T02:56:34.427Z,75.43
2018-06-20T02:57:34.447Z,75.79
2018-06-20T02:58:34.443Z,75.8
2018-06-20T02:59:34.468Z,75.83
2018-06-20T03:00:34.437Z,75.66
2018-06-20T03:01:34.413Z,75.92
2018-06-20T03:02:34.776Z,75.43
2018-06-20T03:03:34.422Z,75.79
2018-06-20T03:04:34.424Z,75.63
2018-06-20T03:05:34.425Z,75.37
2018-06-20T03:06:34.476Z,75.21
2018-06-20T03:07:34.617Z,75.51
2018-06-20T03:08:34.428Z,75.34
2018-06-20T03:09:34.439Z,75.55
2018-06-20T03:10:34.472Z,75.51
2018-06-20T03:11:34.480Z,75.32
2018-06-20T03:12:34.475Z,75.77
2018-06-20T03:13:34.428Z,75.94
2018-06-20T03:14:34.434Z,75.95
2018-06-20T03:15:34.438Z,75.46
2018-06-20T03:16:34.433Z,76.29
2018-06-20T03:17:34.498Z,76.03
2018-06-20T03:18:34.462Z,75.41
2018-06-20T03:19:34.428Z,75.37
2018-06-20T03:20:34.433Z,75.74
2018-06-20T03:21:34.440Z,75.64
2018-06-20T03:22:34.446Z,75.89
2018-06-20T03:23:34.445Z,75.74
2018-06-20T03:24:34.452Z,75.81
2018-06-20T03:25:34.601Z,75.99
2018-06-20T03:26:34.464Z,75.51
2018-06-20T03:27:34.473Z,75.74
2018-06-20T03:28:34.434Z,75.53
2018-06-20T03:29:34.483Z,75.57
2018-06-20T03:30:34.568Z,75.52
2018-06-20T03:31:34.432Z,75.49
2018-06-20T03:32:34.455Z,75.17
2018-06-20T03:33:34.446Z,75.27
2018-06-20T03:34:34.425Z,75.35
2018-06-20T03:35:34.433Z,75.19
2018-06-20T03:36:34.435Z,74.74
2018-06-20T03:37:34.448Z,74.56
2018-06-20T03:38:34.457Z,74.98
2018-06-20T03:39:34.439Z,75.39
2018-06-20T03:40:34.513Z,75.4
2018-06-20T03:41:34.454Z,75.14
2018-06-20T03:42:34.455Z,75.32
2018-06-20T03:43:34.452Z,75.4
2018-06-20T03:44:34.458Z,75.64
2018-06-20T03:45:34.455Z,75.9
2018-06-20T03:46:34.443Z,75.73
2018-06-20T03:47:34.463Z,75.39
2018-06-20T03:48:34.496Z,75.36
2018-06-20T03:49:34.472Z,75.2
2018-06-20T03:50:34.469Z,75.82
2018-06-20T03:51:34.435Z,75.5
2018-06-20T03:52:34.442Z,75.92
2018-06-20T03:53:34.497Z,75.89
2018-06-20T03:54:34.446Z,75.5
2018-06-20T03:55:34.643Z,75.5
2018-06-20T03:56:34.510Z,75.33
2018-06-20T03:57:34.470Z,75.75
2018-06-20T03:58:34.460Z,75.48
2018-06-20T03:59:34.463Z,76.3
2018-06-20T04:00:34.465Z,76.59
2018-06-20T04:01:34.461Z,76.53
2018-06-20T04:02:34.499Z,76.36
2018-06-20T04:03:34.458Z,76.35
2018-06-20T04:04:34.464Z,76.42
2018-06-20T04:05:34.469Z,76.13
2018-06-20T04:06:34.477Z,76.49
2018-06-20T04:07:34.487Z,76.26
2018-06-20T04:08:34.602Z,76.91
2018-06-20T04:09:34.488Z,76.19
2018-06-20T04:10:34.464Z,75.72
2018-06-20T04:11:34.502Z,75.64
2018-06-20T04:12:34.476Z,75.75
2018-06-20T04:13:34.488Z,75.65
2018-06-20T04:14:34.503Z,75.27
2018-06-20T04:15:34.467Z,75.77
2018-06-20T04:16:34.480Z,75.99
2018-06-20T04:17:34.454Z,76.03
2018-06-20T04:18:34.487Z,75.72
2018-06-20T04:19:34.490Z,75.83
2018-06-20T04:20:34.466Z,76.13
2018-06-20T04:21:34.521Z,75.86
2018-06-20T04:22:34.510Z,75.67
2018-06-20T04:23:34.497Z,75.7
2018-06-20T04:24:34.498Z,75.94
2018-06-20T04:25:34.512Z,75.39
2018-06-20T04:26:34.512Z,75.8
2018-06-20T04:27:34.484Z,75.12
2018-06-20T04:28:34.516Z,75.53
2018-06-20T04:29:34.502Z,75.36
2018-06-20T04:30:34.838Z,76.1
2018-06-20T04:31:34.516Z,75.99
2018-06-20T04:32:34.534Z,75.85
2018-06-20T04:33:34.522Z,76.14
2018-06-20T04:34:34.688Z,75.54
2018-06-20T04:35:34.550Z,75.88
2018-06-20T04:36:34.485Z,76.24
2018-06-20T04:37:34.664Z,75.29
2018-06-20T04:38:34.512Z,75.18
2018-06-20T04:39:34.505Z,75.29
2018-06-20T04:40:34.719Z,75.72
2018-06-20T04:41:34.569Z,75.04
2018-06-20T04:42:34.484Z,75.04
2018-06-20T04:43:34.527Z,75.46
2018-06-20T04:44:34.596Z,75.02
2018-06-20T04:45:34.532Z,75.58
2018-06-20T04:46:34.481Z,75.02
2018-06-20T04:47:34.487Z,75
2018-06-20T04:48:34.511Z,74.99
2018-06-20T04:49:34.502Z,75.04
2018-06-20T04:50:34.510Z,74.9
2018-06-20T04:51:34.481Z,75.29
2018-06-20T04:52:34.511Z,75.36
2018-06-20T04:53:34.474Z,75.04
2018-06-20T04:54:34.511Z,75.01
2018-06-20T04:55:34.764Z,74.99
2018-06-20T04:56:34.486Z,74.83
2018-06-20T04:57:34.525Z,74.78
2018-06-20T04:58:34.501Z,75.16
2018-06-20T04:59:34.542Z,74.94
2018-06-20T05:00:34.506Z,74.72
2018-06-20T05:01:34.553Z,74.96
2018-06-20T05:02:34.516Z,74.81
2018-06-20T05:03:34.536Z,75.12
2018-06-20T05:04:34.531Z,74.93
2018-06-20T05:05:34.616Z,75.14
2018-06-20T05:06:34.650Z,75.2
2018-06-20T05:07:34.514Z,75.13
2018-06-20T05:08:34.521Z,74.74
2018-06-20T05:09:34.572Z,74.98
2018-06-20T05:10:34.506Z,74.9
2018-06-20T05:11:34.564Z,74.68
2018-06-20T05:12:34.538Z,74.87
2018-06-20T05:13:34.577Z,74.66
2018-06-20T05:14:34.744Z,74.51
2018-06-20T05:15:34.507Z,74.48
2018-06-20T05:16:34.598Z,74.38
2018-06-20T05:17:34.533Z,75.08
2018-06-20T05:18:34.510Z,75.33
2018-06-20T05:19:34.528Z,75.54
2018-06-20T05:20:34.536Z,75.29
2018-06-20T05:21:34.549Z,75.07
2018-06-20T05:22:34.756Z,75.16
2018-06-20T05:23:34.562Z,75.25
2018-06-20T05:24:34.709Z,75.28
2018-06-20T05:25:34.515Z,74.82
2018-06-20T05:26:34.796Z,74.79
2018-06-20T05:27:34.820Z,75.08
2018-06-20T05:28:34.693Z,74.66
2018-06-20T05:29:34.626Z,74.96
2018-06-20T05:30:34.661Z,74.92
2018-06-20T05:31:34.693Z,74.61
2018-06-20T05:32:34.659Z,74.56
2018-06-20T05:33:34.829Z,74.63
2018-06-20T05:34:34.689Z,74.86
2018-06-20T05:35:34.672Z,74.69
2018-06-20T05:36:34.731Z,74.48
2018-06-20T05:37:34.681Z,74.46
2018-06-20T05:38:34.706Z,74.25
2018-06-20T05:39:34.737Z,74.44
2018-06-20T05:40:34.774Z,74.11
2018-06-20T05:41:34.686Z,74.6
2018-06-20T05:42:34.736Z,74.77
2018-06-20T05:43:34.767Z,74.48
2018-06-20T05:44:34.753Z,74.11
2018-06-20T05:45:34.756Z,74.49
2018-06-20T05:46:34.688Z,74.52
2018-06-20T05:47:34.780Z,74.37
2018-06-20T05:48:34.698Z,74.25
2018-06-20T05:49:34.782Z,74.06
2018-06-20T05:50:34.786Z,74.73
2018-06-20T05:51:34.789Z,74.55
2018-06-20T05:52:34.698Z,74.41
2018-06-20T05:53:34.770Z,74.4
2018-06-20T05:54:34.668Z,73.98
2018-06-20T05:55:34.683Z,74.35
2018-06-20T05:56:34.748Z,74.32
2018-06-20T05:57:34.705Z,74.39
2018-06-20T05:58:34.736Z,74.41
2018-06-20T05:59:34.740Z,74.11
2018-06-20T06:00:34.670Z,74.21
2018-06-20T06:01:34.788Z,74.33
2018-06-20T06:02:34.684Z,73.98
2018-06-20T06:03:34.872Z,73.82
2018-06-20T06:04:34.718Z,73.82
2018-06-20T06:05:34.788Z,73.98
2018-06-20T06:06:34.535Z,73.68
2018-06-20T06:07:34.562Z,73.78
2018-06-20T06:08:34.909Z,73.66
2018-06-20T06:09:34.542Z,73.78
2018-06-20T06:10:34.745Z,73.82
2018-06-20T06:11:34.579Z,73.84
2018-06-20T06:12:34.582Z,73.81
2018-06-20T06:13:34.797Z,73.62
2018-06-20T06:14:34.568Z,73.79
2018-06-20T06:15:34.586Z,74.03
2018-06-20T06:16:34.569Z,73.64
2018-06-20T06:17:34.836Z,73.85
2018-06-20T06:18:34.572Z,73.95
2018-06-20T06:19:34.610Z,73.56
2018-06-20T06:20:34.587Z,73.15
2018-06-20T06:21:34.594Z,73.28
2018-06-20T06:22:34.903Z,73.18
2018-06-20T06:23:34.944Z,72.83
2018-06-20T06:24:34.582Z,72.54
2018-06-20T06:25:34.559Z,73.32
2018-06-20T06:26:34.574Z,73.17
2018-06-20T06:27:34.592Z,73.59
2018-06-20T06:28:34.905Z,73.39
2018-06-20T06:29:34.635Z,73.22
2018-06-20T06:30:34.908Z,73.16
2018-06-20T06:31:34.567Z,73.01
2018-06-20T06:32:34.605Z,73
2018-06-20T06:33:34.646Z,72.66
2018-06-20T06:34:34.593Z,72.86
2018-06-20T06:35:34.582Z,72.93
2018-06-20T06:36:34.592Z,72.71
2018-06-20T06:37:34.691Z,72.59
2018-06-20T06:38:34.584Z,72.27
2018-06-20T06:39:34.600Z,71.75
2018-06-20T06:40:34.619Z,72.22
2018-06-20T06:41:34.582Z,72.32
2018-06-20T06:42:34.558Z,72.38
2018-06-20T06:43:34.570Z,72.34
2018-06-20T06:44:34.954Z,72.56
2018-06-20T06:45:35.199Z,72.53
2018-06-20T06:46:34.593Z,72.54
2018-06-20T06:47:34.604Z,72.97
2018-06-20T06:48:34.620Z,71.86
2018-06-20T06:49:34.741Z,71.96
2018-06-20T06:50:34.587Z,71.97
2018-06-20T06:51:34.614Z,72.46
2018-06-20T06:52:34.623Z,72.28
2018-06-20T06:53:34.571Z,72.39
2018-06-20T06:54:34.573Z,71.86
2018-06-20T06:55:34.572Z,72.06
2018-06-20T06:56:34.660Z,71.95
2018-06-20T06:57:34.583Z,71.82
2018-06-20T06:58:34.641Z,71.2
2018-06-20T06:59:34.569Z,72.06
2018-06-20T07:00:34.624Z,71.9
2018-06-20T07:01:34.800Z,71.45
2018-06-20T07:02:34.843Z,71.57
2018-06-20T07:03:34.607Z,71.97
2018-06-20T07:04:34.587Z,71.84
2018-06-20T07:05:34.648Z,71.69
2018-06-20T07:06:34.582Z,71.28
2018-06-20T07:07:34.597Z,71.16
2018-06-20T07:08:34.657Z,71.25
2018-06-20T07:09:34.604Z,71.22
2018-06-20T07:10:34.587Z,71.26
2018-06-20T07:11:34.617Z,71.34
2018-06-20T07:12:34.577Z,70.65
2018-06-20T07:13:34.602Z,69.62
2018-06-20T07:14:34.627Z,69.94
2018-06-20T07:15:35.258Z,69.97
2018-06-20T07:16:34.661Z,69.99
2018-06-20T07:17:34.669Z,69.99
2018-06-20T07:18:34.646Z,70.11
2018-06-20T07:19:34.612Z,70.43
2018-06-20T07:20:34.625Z,70.05
2018-06-20T07:21:34.630Z,68.79
2018-06-20T07:22:34.604Z,69.12
2018-06-20T07:23:34.667Z,69.3
2018-06-20T07:24:34.939Z,68.96
2018-06-20T07:25:34.603Z,69.32
2018-06-20T07:26:34.649Z,69.41
2018-06-20T07:27:34.639Z,69.5
2018-06-20T07:28:34.839Z,69.04
2018-06-20T07:29:34.639Z,67.83
2018-06-20T07:30:34.598Z,68.45
2018-06-20T07:31:34.605Z,68.33
2018-06-20T07:32:34.689Z,68.64
2018-06-20T07:33:34.619Z,68.24
2018-06-20T07:34:35.326Z,67.83
2018-06-20T07:35:35.956Z,67.22
2018-06-20T07:36:34.625Z,67.62
2018-06-20T07:37:34.669Z,67.2
2018-06-20T07:38:34.670Z,66.11
2018-06-20T07:39:35.032Z,65.87
2018-06-20T07:40:34.658Z,66.07
2018-06-20T07:41:34.675Z,65.84
2018-06-20T07:42:34.683Z,66.11
2018-06-20T07:43:34.627Z,66.45
2018-06-20T07:44:34.657Z,67.12
2018-06-20T07:45:34.724Z,66.52
2018-06-20T07:46:34.596Z,67.13
2018-06-20T07:47:34.631Z,66.97
2018-06-20T07:48:34.638Z,66.32
2018-06-20T07:49:34.804Z,66.11
2018-06-20T07:50:34.682Z,66.46
2018-06-20T07:51:34.765Z,65.95
2018-06-20T07:52:34.874Z,65.65
2018-06-20T07:53:34.727Z,65.67
2018-06-20T07:54:34.848Z,65.43
2018-06-20T07:55:34.781Z,65.56
2018-06-20T07:56:34.765Z,65.28
2018-06-20T07:57:34.744Z,65.31
2018-06-20T07:58:34.762Z,66.13
2018-06-20T07:59:34.712Z,65.44
2018-06-20T08:00:35.025Z,65.82
2018-06-20T08:01:34.764Z,66.16
2018-06-20T08:02:34.715Z,66.26
2018-06-20T08:03:34.907Z,65.75
2018-06-20T08:04:34.740Z,65.66
2018-06-20T08:05:34.691Z,65.38
2018-06-20T08:06:34.730Z,65.22
2018-06-20T08:07:34.738Z,65.36
2018-06-20T08:08:34.728Z,66.08
2018-06-20T08:09:34.753Z,65.84
2018-06-20T08:10:34.753Z,65.84
2018-06-20T08:11:34.766Z,66.08
2018-06-20T08:12:34.773Z,65.73
2018-06-20T08:13:34.781Z,65.24
2018-06-20T08:14:34.771Z,63.83
2018-06-20T08:15:34.780Z,63.67
2018-06-20T08:16:34.770Z,63.48
2018-06-20T08:17:34.778Z,63.77
2018-06-20T08:18:34.752Z,63.76
2018-06-20T08:19:34.789Z,63.88
2018-06-20T08:20:34.786Z,63.86
2018-06-20T08:21:34.778Z,63.01
2018-06-20T08:22:34.770Z,63.14
2018-06-20T08:23:34.742Z,61.43
2018-06-20T08:24:34.743Z,61.61
2018-06-20T08:25:34.756Z,61.68
2018-06-20T08:26:34.763Z,61.17
2018-06-20T08:27:34.770Z,61.79
2018-06-20T08:28:34.778Z,62.64
2018-06-20T08:29:34.742Z,62.24
2018-06-20T08:30:34.760Z,61.85
2018-06-20T08:31:34.766Z,62.85
2018-06-20T08:32:34.796Z,63.02
2018-06-20T08:33:34.780Z,62.95
2018-06-20T08:34:34.777Z,62.09
2018-06-20T08:35:34.792Z,62.23
2018-06-20T08:36:34.935Z,60.67
2018-06-20T08:37:34.798Z,60.38
2018-06-20T08:38:34.867Z,61.27
2018-06-20T08:39:34.822Z,61.09
2018-06-20T08:40:34.808Z,61.63
2018-06-20T08:41:35.131Z,61.81
2018-06-20T08:42:35.072Z,61.97
2018-06-20T08:43:34.804Z,61.72
2018-06-20T08:44:35.002Z,61.11
2018-06-20T08:45:34.840Z,61.1
2018-06-20T08:46:34.811Z,60.36
2018-06-20T08:47:34.837Z,59.79
2018-06-20T08:48:34.882Z,59.69
2018-06-20T08:49:34.845Z,59.99
2018-06-20T08:50:34.864Z,60.09
2018-06-20T08:51:35.006Z,60.21
2018-06-20T08:52:35.042Z,60.6
2018-06-20T08:53:34.794Z,60.46
2018-06-20T08:54:34.812Z,60.62
2018-06-20T08:55:34.843Z,61.01
2018-06-20T08:56:34.658Z,61.05
2018-06-20T08:57:35.047Z,60.67
2018-06-20T08:58:34.889Z,60.18
2018-06-20T08:59:34.856Z,59.76
2018-06-20T09:00:34.706Z,60.18
2018-06-20T09:01:34.656Z,59.54
2018-06-20T09:02:34.695Z,59.61
2018-06-20T09:03:34.734Z,60.45
2018-06-20T09:04:34.703Z,59.62
2018-06-20T09:05:34.695Z,59.19
2018-06-20T09:06:34.757Z,58.93
2018-06-20T09:07:34.664Z,59.24
2018-06-20T09:08:34.953Z,58.69
2018-06-20T09:09:34.690Z,58.84
2018-06-20T09:10:34.667Z,59.12
2018-06-20T09:11:34.709Z,59.09
2018-06-20T09:12:34.713Z,59.43
2018-06-20T09:13:34.674Z,58.57
2018-06-20T09:14:34.694Z,58.89
2018-06-20T09:15:34.694Z,58.61
2018-06-20T09:16:34.715Z,59.11
2018-06-20T09:17:34.702Z,57.96
2018-06-20T09:18:34.700Z,58.21
2018-06-20T09:19:34.684Z,57.38
2018-06-20T09:20:34.767Z,57.96
2018-06-20T09:21:34.711Z,58.46
2018-06-20T09:22:34.709Z,58.48
2018-06-20T09:23:34.715Z,57.73
2018-06-20T09:24:34.747Z,57.75
2018-06-20T09:25:34.685Z,57.75
2018-06-20T09:26:34.672Z,58.14
2018-06-20T09:27:34.695Z,58.53
2018-06-20T09:28:34.701Z,58.48
2018-06-20T09:29:34.686Z,58.16
2018-06-20T09:30:34.714Z,58.1
2018-06-20T09:31:34.757Z,57.78
2018-06-20T09:32:34.703Z,58.26
2018-06-20T09:33:34.760Z,57.29
2018-06-20T09:34:34.727Z,55.98
2018-06-20T09:35:34.737Z,57.03
2018-06-20T09:36:34.690Z,56.51
2018-06-20T09:37:34.696Z,55.7
2018-06-20T09:38:34.994Z,56.26
2018-06-20T09:39:34.927Z,55.14
2018-06-20T09:40:34.707Z,54.95
2018-06-20T09:41:34.700Z,55.07
2018-06-20T09:42:34.813Z,55.35
2018-06-20T09:43:34.737Z,55.73
2018-06-20T09:44:34.924Z,55.74
2018-06-20T09:45:34.707Z,56.07
2018-06-20T09:46:34.758Z,56.06
2018-06-20T09:47:34.755Z,55.62
2018-06-20T09:48:34.816Z,56
2018-06-20T09:49:34.762Z,55.47
2018-06-20T09:50:34.815Z,54.6
2018-06-20T09:51:34.808Z,55.04
2018-06-20T09:52:34.723Z,54.81
2018-06-20T09:53:34.773Z,55.34
2018-06-20T09:54:34.759Z,54.67
2018-06-20T09:55:34.799Z,53.66
2018-06-20T09:56:34.726Z,54.51
2018-06-20T09:57:34.703Z,55.15
2018-06-20T09:58:34.727Z,55.08
2018-06-20T09:59:34.701Z,55.04
2018-06-20T10:00:34.891Z,54.75
2018-06-20T10:01:35.189Z,54
2018-06-20T10:02:34.716Z,54.22
2018-06-20T10:03:34.802Z,54.52
2018-06-20T10:04:34.709Z,52.82
2018-06-20T10:05:34.902Z,53.43
2018-06-20T10:06:34.781Z,52.52
2018-06-20T10:07:34.736Z,52.79
2018-06-20T10:08:34.722Z,53.73
2018-06-20T10:09:34.721Z,52.76
2018-06-20T10:10:34.841Z,54.4
2018-06-20T10:11:34.767Z,53.52
2018-06-20T10:12:34.849Z,51.65
2018-06-20T10:13:34.759Z,52.2
2018-06-20T10:14:34.730Z,52.34
2018-06-20T10:15:34.716Z,52.5
2018-06-20T10:16:34.942Z,53.05
2018-06-20T10:17:34.816Z,53.84
2018-06-20T10:18:34.736Z,53.19
2018-06-20T10:19:34.736Z,52.6
2018-06-20T10:20:34.743Z,53.44
2018-06-20T10:21:34.752Z,54.08
2018-06-20T10:22:34.746Z,54.57
2018-06-20T10:23:34.846Z,53.72
2018-06-20T10:24:34.763Z,52.94
2018-06-20T10:25:34.751Z,51.9
2018-06-20T10:26:34.855Z,52.93
2018-06-20T10:27:34.803Z,52.7
2018-06-20T10:28:35.016Z,53.38
2018-06-20T10:29:34.803Z,53.46
2018-06-20T10:30:34.814Z,53.44
2018-06-20T10:31:34.744Z,52.86
2018-06-20T10:32:34.799Z,52.95
2018-06-20T10:33:34.747Z,52.24
2018-06-20T10:34:34.754Z,51.41
2018-06-20T10:35:34.733Z,51.5
2018-06-20T10:36:34.757Z,51.18
2018-06-20T10:37:34.820Z,52.86
2018-06-20T10:38:34.749Z,52.33
2018-06-20T10:39:34.765Z,52.8
2018-06-20T10:40:34.795Z,53.1
2018-06-20T10:41:34.769Z,50.98
2018-06-20T10:42:34.780Z,52.45
2018-06-20T10:43:34.770Z,52.45
2018-06-20T10:44:34.748Z,52.32
2018-06-20T10:45:34.771Z,50.58
2018-06-20T10:46:34.803Z,50.9
2018-06-20T10:47:34.742Z,50.01
2018-06-20T10:48:34.760Z,50.18
2018-06-20T10:49:34.803Z,51.47
2018-06-20T10:50:34.841Z,51.98
2018-06-20T10:51:35.026Z,52.15
2018-06-20T10:52:34.737Z,52.3
2018-06-20T10:53:34.775Z,50.99
2018-06-20T10:54:34.901Z,51.47
2018-06-20T10:55:34.953Z,51.6
2018-06-20T10:56:34.979Z,51.44
2018-06-20T10:57:34.776Z,51.14
2018-06-20T10:58:34.898Z,50.63
2018-06-20T10:59:34.792Z,50.91
2018-06-20T11:00:34.922Z,51.15
2018-06-20T11:01:34.907Z,50.32
2018-06-20T11:02:34.743Z,50.6
2018-06-20T11:03:34.739Z,49.78
2018-06-20T11:04:34.750Z,49.8
2018-06-20T11:05:34.757Z,49.41
2018-06-20T11:06:34.765Z,48.96
2018-06-20T11:07:35.008Z,48.57
2018-06-20T11:08:34.776Z,48.84
2018-06-20T11:09:35.030Z,49.12
2018-06-20T11:10:34.788Z,49.15
2018-06-20T11:11:34.962Z,49.55
2018-06-20T11:12:34.755Z,49.6
2018-06-20T11:13:34.931Z,50.42
2018-06-20T11:14:34.809Z,49.23
2018-06-20T11:15:34.784Z,48.83
2018-06-20T11:16:34.774Z,49.12
2018-06-20T11:17:34.806Z,48.6
2018-06-20T11:18:34.846Z,50.26
2018-06-20T11:19:34.935Z,49.71
2018-06-20T11:20:34.821Z,49.6
2018-06-20T11:21:34.808Z,50.44
2018-06-20T11:22:34.784Z,49.68
2018-06-20T11:23:34.822Z,50.34
2018-06-20T11:24:34.796Z,49.55
2018-06-20T11:25:35.152Z,49.77
2018-06-20T11:26:34.833Z,47.43
2018-06-20T11:27:34.806Z,48.48
2018-06-20T11:28:34.856Z,48.95
2018-06-20T11:29:34.790Z,48.58
2018-06-20T11:30:34.797Z,48.76
2018-06-20T11:31:34.783Z,49.01
2018-06-20T11:32:34.782Z,47.86
2018-06-20T11:33:34.780Z,48.21
2018-06-20T11:34:34.794Z,46.7
2018-06-20T11:35:34.805Z,47.4
2018-06-20T11:36:34.783Z,48.25
2018-06-20T11:37:34.789Z,47.28
2018-06-20T11:38:34.772Z,47.33
2018-06-20T11:39:35.200Z,47.62
2018-06-20T11:40:34.915Z,47.9
2018-06-20T11:41:34.786Z,47.09
2018-06-20T11:42:34.808Z,47.7
2018-06-20T11:43:34.794Z,47.82
2018-06-20T11:44:34.792Z,48.05
2018-06-20T11:45:34.817Z,48.01
2018-06-20T11:46:34.806Z,44.97
2018-06-20T11:47:34.797Z,45.63
2018-06-20T11:48:34.805Z,47.26
2018-06-20T11:49:34.784Z,47.33
2018-06-20T11:50:34.851Z,47.46
2018-06-20T11:51:34.824Z,47.38
2018-06-20T11:52:34.822Z,46.85
2018-06-20T11:53:34.811Z,47.36
2018-06-20T11:54:35.007Z,46.65
2018-06-20T11:55:34.780Z,44.53
2018-06-20T11:56:34.962Z,45.65
2018-06-20T11:57:34.813Z,46.16
2018-06-20T11:58:34.857Z,46.85
2018-06-20T11:59:34.808Z,46.92
2018-06-20T12:00:34.870Z,45.96
2018-06-20T12:01:34.864Z,46.32
2018-06-20T12:02:34.822Z,45.06
2018-06-20T12:03:34.860Z,44.96
2018-06-20T12:04:34.810Z,44.9
2018-06-20T12:05:34.948Z,43.45
2018-06-20T12:06:34.826Z,44.91
2018-06-20T12:07:34.816Z,46.16
2018-06-20T12:08:34.831Z,45.96
2018-06-20T12:09:34.812Z,44.38
2018-06-20T12:10:34.847Z,44.39
2018-06-20T12:11:34.950Z,44.8
2018-06-20T12:12:34.820Z,45
2018-06-20T12:13:35.105Z,44.32
2018-06-20T12:14:34.803Z,45.08
2018-06-20T12:15:34.843Z,45.81
2018-06-20T12:16:35.008Z,45.32
2018-06-20T12:17:34.856Z,46.16
2018-06-20T12:18:34.871Z,45.46
2018-06-20T12:19:34.949Z,45.64
2018-06-20T12:20:34.865Z,46.06
2018-06-20T12:21:35.059Z,44.63
2018-06-20T12:22:34.931Z,45.15
2018-06-20T12:23:34.845Z,45.61
2018-06-20T12:24:34.821Z,45.48
2018-06-20T12:25:34.841Z,44.71
2018-06-20T12:26:34.909Z,45.02
2018-06-20T12:27:35.060Z,45.37
2018-06-20T12:28:34.890Z,45.69
2018-06-20T12:29:34.908Z,44.35
2018-06-20T12:30:34.894Z,44.84
2018-06-20T12:31:34.855Z,44.34
2018-06-20T12:32:34.827Z,44.68
2018-06-20T12:33:34.997Z,45.21
2018-06-20T12:34:34.839Z,43.38
2018-06-20T12:35:34.840Z,44.1
2018-06-20T12:36:35.031Z,43.32
2018-06-20T12:37:34.886Z,44.16
2018-06-20T12:38:35.037Z,44.7
2018-06-20T12:39:34.927Z,44.79
2018-06-20T12:40:35.002Z,44.05
2018-06-20T12:41:34.851Z,43.36
2018-06-20T12:42:34.993Z,42.65
2018-06-20T12:43:35.002Z,42.98
2018-06-20T12:44:34.829Z,43.22
2018-06-20T12:45:34.862Z,44.17
2018-06-20T12:46:34.838Z,43.27
2018-06-20T12:47:34.856Z,43.97
2018-06-20T12:48:34.838Z,42.97
2018-06-20T12:49:34.858Z,42.91
2018-06-20T12:50:34.859Z,43.25
2018-06-20T12:51:34.846Z,42.19
2018-06-20T12:52:35.222Z,43.37
2018-06-20T12:53:34.872Z,42.71
2018-06-20T12:54:34.905Z,42.74
2018-06-20T12:55:34.855Z,43.51